createdAt,value
2023-05-11T00:02:07.946Z,7.20
2023-05-11T00:06:12.030Z,6.66
2023-05-11T00:10:14.875Z,6.20
2023-05-11T00:14:17.582Z,6.36
2023-05-11T00:18:20.229Z,6.78
2023-05-11T00:22:24.263Z,6.84
2023-05-11T00:26:27.069Z,6.69
2023-05-11T00:30:29.706Z,6.21
2023-05-11T00:34:32.608Z,6.57
2023-05-11T00:38:40.765Z,6.26
2023-05-11T00:42:43.445Z,6.60
2023-05-11T00:46:46.088Z,7.05
2023-05-11T00:50:49.013Z,7.05
2023-05-11T00:54:52.998Z,6.87
2023-05-11T00:58:55.939Z,6.79
2023-05-11T01:02:59.040Z,6.80
2023-05-11T01:07:06.862Z,7.09
2023-05-11T01:11:17.510Z,7.13
2023-05-11T01:15:26.100Z,7.32
2023-05-11T01:19:38.551Z,7.46
2023-05-11T01:23:46.283Z,7.36
2023-05-11T01:28:16.905Z,7.48
2023-05-11T01:32:24.412Z,7.60
2023-05-11T01:36:38.788Z,7.56
2023-05-11T01:40:43.387Z,7.65
2023-05-11T01:44:48.906Z,7.60
2023-05-11T01:48:53.927Z,7.92
2023-05-11T01:52:58.259Z,8.02
2023-05-11T01:57:01.801Z,8.14
2023-05-11T02:01:05.214Z,8.20
2023-05-11T02:05:09.952Z,8.17
2023-05-11T02:09:13.410Z,8.04
2023-05-11T02:13:17.030Z,8.01
2023-05-11T02:17:22.138Z,8.02
2023-05-11T02:21:27.455Z,8.06
2023-05-11T02:25:31.049Z,8.06
2023-05-11T02:29:33.882Z,8.04
2023-05-11T02:33:37.438Z,8.00
2023-05-11T02:37:44.918Z,8.09
2023-05-11T02:41:47.782Z,8.26
2023-05-11T02:45:51.787Z,8.41
2023-05-11T02:49:56.747Z,8.29
2023-05-11T02:54:01.572Z,8.28
2023-05-11T02:58:04.311Z,8.28
2023-05-11T03:02:07.487Z,8.30
2023-05-11T03:06:10.253Z,8.32
2023-05-11T03:10:14.265Z,8.27
2023-05-11T03:14:17.035Z,8.26
2023-05-11T03:18:20.173Z,8.34
2023-05-11T03:22:23.687Z,8.39
2023-05-11T03:26:29.969Z,8.35
2023-05-11T03:30:33.221Z,8.19
2023-05-11T03:34:35.975Z,8.46
2023-05-11T03:38:39.241Z,8.45
2023-05-11T03:42:43.696Z,8.57
2023-05-11T03:46:47.830Z,8.39
2023-05-11T03:50:50.932Z,8.34
2023-05-11T03:54:53.878Z,8.26
2023-05-11T03:58:58.290Z,8.38
2023-05-11T04:03:05.843Z,8.41
2023-05-11T04:07:08.578Z,8.36
2023-05-11T04:11:11.453Z,8.34
2023-05-11T04:15:15.727Z,8.31
2023-05-11T04:19:18.453Z,8.44
2023-05-11T04:23:21.083Z,8.40
2023-05-11T04:27:23.713Z,8.23
2023-05-11T04:31:27.881Z,8.18
2023-05-11T04:35:30.716Z,8.32
2023-05-11T04:39:33.404Z,8.21
2023-05-11T04:43:36.324Z,8.17
2023-05-11T04:47:40.464Z,8.23
2023-05-11T04:51:43.145Z,8.22
2023-05-11T04:55:45.816Z,8.04
2023-05-11T04:59:48.577Z,8.10
2023-05-11T05:03:52.856Z,8.31
2023-05-11T05:07:55.946Z,8.13
2023-05-11T05:11:58.522Z,8.38
2023-05-11T05:16:01.164Z,8.30
2023-05-11T05:20:06.394Z,8.28
2023-05-11T05:24:11.244Z,8.34
2023-05-11T05:28:13.859Z,8.30
2023-05-11T05:32:16.476Z,8.31
2023-05-11T05:36:20.452Z,8.58
2023-05-11T05:40:25.216Z,8.82
2023-05-11T05:44:27.954Z,8.53
2023-05-11T05:48:30.639Z,8.59
2023-05-11T05:52:34.921Z,8.57
2023-05-11T05:56:37.604Z,8.73
2023-05-11T06:00:40.888Z,8.65
2023-05-11T06:04:43.911Z,8.30
2023-05-11T06:08:47.963Z,8.97
2023-05-11T06:12:50.660Z,9.22
2023-05-11T06:16:53.711Z,9.31
2023-05-11T06:20:56.571Z,9.11
2023-05-11T06:25:00.863Z,9.35
2023-05-11T06:29:03.939Z,9.45
2023-05-11T06:33:06.903Z,9.49
2023-05-11T06:37:09.543Z,9.84
2023-05-11T06:41:14.061Z,9.92
2023-05-11T06:45:17.219Z,10.52
2023-05-11T06:49:19.941Z,10.27
2023-05-11T06:53:22.651Z,9.98
2023-05-11T06:57:26.717Z,10.67
2023-05-11T07:01:29.806Z,10.56
2023-05-11T07:05:32.573Z,10.16
2023-05-11T07:09:35.264Z,10.33
2023-05-11T07:13:39.356Z,10.91
2023-05-11T07:17:42.301Z,11.06
2023-05-11T07:21:45.569Z,11.54
2023-05-11T07:25:48.145Z,11.36
2023-05-11T07:29:52.827Z,12.26
2023-05-11T07:33:55.622Z,12.44
2023-05-11T07:37:59.071Z,12.18
2023-05-11T07:42:01.901Z,12.42
2023-05-11T07:46:07.257Z,12.97
2023-05-11T07:50:10.801Z,13.08
2023-05-11T07:54:13.469Z,12.55
2023-05-11T07:58:16.539Z,12.88
2023-05-11T08:02:20.681Z,13.23
2023-05-11T08:06:23.636Z,13.04
2023-05-11T08:10:26.333Z,12.86
2023-05-11T08:14:29.031Z,13.53
2023-05-11T08:18:33.279Z,13.46
2023-05-11T08:22:36.028Z,13.24
2023-05-11T08:26:38.716Z,13.65
2023-05-11T08:30:41.418Z,13.49
2023-05-11T08:34:45.892Z,13.90
2023-05-11T08:38:48.614Z,13.57
2023-05-11T08:42:56.771Z,13.82
2023-05-11T08:47:18.947Z,13.98
2023-05-11T08:51:24.583Z,13.59
2023-05-11T08:55:27.519Z,13.72
2023-05-11T08:59:30.722Z,13.40
2023-05-11T09:03:33.159Z,13.47
2023-05-11T09:07:38.211Z,13.46
2023-05-11T09:11:41.252Z,13.41
2023-05-11T09:15:44.003Z,13.51
2023-05-11T09:20:01.025Z,13.74
2023-05-11T09:24:05.556Z,13.91
2023-05-11T09:28:08.678Z,14.04
2023-05-11T09:32:11.800Z,14.47
2023-05-11T09:36:24.364Z,14.31
2023-05-11T09:44:35.821Z,13.94
2023-05-11T09:48:38.580Z,14.16
2023-05-11T09:52:51.543Z,13.86
2023-05-11T09:56:58.225Z,14.19
2023-05-11T10:01:00.998Z,14.41
2023-05-11T10:05:12.696Z,14.14
2023-05-11T10:09:17.178Z,14.35
2023-05-11T10:13:21.790Z,14.81
2023-05-11T10:17:24.619Z,14.97
2023-05-11T10:21:27.606Z,14.85
2023-05-11T10:25:30.276Z,14.85
2023-05-11T10:29:35.527Z,15.17
2023-05-11T10:33:38.303Z,14.97
2023-05-11T10:37:42.003Z,14.46
2023-05-11T10:41:53.506Z,14.50
2023-05-11T10:46:03.612Z,14.52
2023-05-11T10:50:34.849Z,14.95
2023-05-11T10:54:45.597Z,14.83
2023-05-11T10:59:01.054Z,14.89
2023-05-11T11:03:12.450Z,15.12
2023-05-11T11:07:18.208Z,15.05
2023-05-11T11:11:31.529Z,14.68
2023-05-11T11:16:11.234Z,15.12
2023-05-11T11:20:15.598Z,14.70
2023-05-11T11:24:46.440Z,14.27
2023-05-11T11:29:12.161Z,14.25
2023-05-11T11:33:33.856Z,14.18
2023-05-11T11:38:02.118Z,13.97
2023-05-11T11:42:06.659Z,13.86
2023-05-11T11:46:09.366Z,13.77
2023-05-11T11:50:13.228Z,13.71
2023-05-11T11:54:40.080Z,13.44
2023-05-11T11:58:59.540Z,13.36
2023-05-11T12:03:02.449Z,12.76
2023-05-11T12:07:09.786Z,12.77
2023-05-11T12:11:18.362Z,12.51
2023-05-11T12:15:26.882Z,12.69
2023-05-11T12:19:30.802Z,12.61
2023-05-11T12:23:33.459Z,13.16
2023-05-11T12:27:37.864Z,13.39
2023-05-11T12:31:42.010Z,13.75
2023-05-11T12:35:44.971Z,13.82
2023-05-11T12:39:47.695Z,14.03
2023-05-11T12:43:52.063Z,13.64
2023-05-11T12:47:56.483Z,13.91
2023-05-11T12:52:07.678Z,15.00
2023-05-11T12:56:10.396Z,15.43
2023-05-11T13:00:16.085Z,14.56
2023-05-11T13:04:18.755Z,14.75
2023-05-11T13:08:21.404Z,14.74
2023-05-11T13:12:24.243Z,14.94
2023-05-11T13:16:29.930Z,14.55
2023-05-11T13:20:34.430Z,14.97
2023-05-11T13:24:37.091Z,14.59
2023-05-11T13:28:39.790Z,14.41
2023-05-11T13:32:43.853Z,14.93
2023-05-11T13:36:46.861Z,14.94
2023-05-11T13:40:49.485Z,14.96
2023-05-11T13:44:52.120Z,14.84
2023-05-11T13:48:56.244Z,14.50
2023-05-11T13:52:58.899Z,14.61
2023-05-11T13:57:02.780Z,14.19
2023-05-11T14:01:08.372Z,14.45
2023-05-11T14:05:13.253Z,14.33
2023-05-11T14:09:16.177Z,14.34
2023-05-11T14:13:19.002Z,14.40
2023-05-11T14:17:21.697Z,14.69
2023-05-11T14:21:26.042Z,14.67
2023-05-11T14:25:28.747Z,14.62
2023-05-11T14:29:31.523Z,14.90
2023-05-11T14:33:34.268Z,15.09
2023-05-11T14:37:38.597Z,15.16
2023-05-11T14:41:41.380Z,16.63
2023-05-11T14:45:44.309Z,16.22
2023-05-11T14:49:46.965Z,16.17
2023-05-11T14:53:52.231Z,15.92
2023-05-11T14:57:56.383Z,15.91
2023-05-11T15:01:59.737Z,16.77
2023-05-11T15:06:02.797Z,17.37
2023-05-11T15:10:07.558Z,16.99
2023-05-11T15:14:10.674Z,16.86
2023-05-11T15:18:14.288Z,17.49
2023-05-11T15:22:19.003Z,17.78
2023-05-11T15:26:23.182Z,15.83
2023-05-11T15:30:26.005Z,15.74
2023-05-11T15:34:28.503Z,15.08
2023-05-11T15:38:31.086Z,15.06
2023-05-11T15:42:35.163Z,14.12
2023-05-11T15:46:38.153Z,14.22
2023-05-11T15:50:40.678Z,13.46
2023-05-11T15:54:43.282Z,14.02
2023-05-11T15:58:47.343Z,13.55
2023-05-11T16:02:50.182Z,13.97
2023-05-11T16:06:52.887Z,13.77
2023-05-11T16:10:55.575Z,13.73
2023-05-11T16:14:59.604Z,13.95
2023-05-11T16:19:02.698Z,14.05
2023-05-11T16:23:05.481Z,13.38
2023-05-11T16:27:08.299Z,13.01
2023-05-11T16:31:12.433Z,13.86
2023-05-11T16:35:15.085Z,14.14
2023-05-11T16:39:17.728Z,13.84
2023-05-11T16:43:20.386Z,13.81
2023-05-11T16:47:24.709Z,13.51
2023-05-11T16:51:27.408Z,13.52
2023-05-11T16:55:30.841Z,13.70
2023-05-11T16:59:34.550Z,13.40
2023-05-11T17:03:38.841Z,13.46
2023-05-11T17:07:42.631Z,13.12
2023-05-11T17:11:45.494Z,13.13
2023-05-11T17:15:48.205Z,12.53
2023-05-11T17:19:52.249Z,12.41
2023-05-11T17:23:54.924Z,12.14
2023-05-11T17:27:57.664Z,12.14
2023-05-11T17:32:00.596Z,12.27
2023-05-11T17:36:05.137Z,12.06
2023-05-11T17:40:09.268Z,12.07
2023-05-11T17:44:12.026Z,12.06
2023-05-11T17:48:14.641Z,12.25
2023-05-11T17:52:18.599Z,12.27
2023-05-11T17:56:22.243Z,11.99
2023-05-11T18:00:27.450Z,11.50
2023-05-11T18:04:31.003Z,11.93
2023-05-11T18:08:36.590Z,11.62
2023-05-11T18:12:39.559Z,11.82
2023-05-11T18:16:42.218Z,11.75
2023-05-11T18:20:46.490Z,11.73
2023-05-11T18:24:50.725Z,11.32
2023-05-11T18:28:55.065Z,10.99
2023-05-11T18:32:58.133Z,11.20
2023-05-11T18:37:01.364Z,11.24
2023-05-11T18:41:06.553Z,11.37
2023-05-11T18:45:10.428Z,11.04
2023-05-11T18:49:13.141Z,11.06
2023-05-11T18:53:15.879Z,11.08
2023-05-11T18:57:20.940Z,10.88
2023-05-11T19:01:30.231Z,10.92
2023-05-11T19:05:39.003Z,10.37
2023-05-11T19:09:41.697Z,11.08
2023-05-11T19:13:45.722Z,10.99
2023-05-11T19:17:48.774Z,11.07
2023-05-11T19:21:52.642Z,11.03
2023-05-11T19:25:55.458Z,11.12
2023-05-11T19:30:00.046Z,11.35
2023-05-11T19:34:03.020Z,11.35
2023-05-11T19:38:06.591Z,11.13
2023-05-11T19:42:09.678Z,10.80
2023-05-11T19:46:13.977Z,10.86
2023-05-11T19:50:18.087Z,10.91
2023-05-11T19:54:22.325Z,11.09
2023-05-11T19:58:24.935Z,11.18
2023-05-11T20:02:29.190Z,11.41
2023-05-11T20:06:31.924Z,11.27
2023-05-11T20:10:35.320Z,11.07
2023-05-11T20:14:40.922Z,11.22
2023-05-11T20:18:45.480Z,11.27
2023-05-11T20:22:48.280Z,11.32
2023-05-11T20:26:51.134Z,11.10
2023-05-11T20:30:53.839Z,11.19
2023-05-11T20:34:57.908Z,11.00
2023-05-11T20:39:00.553Z,10.94
2023-05-11T20:43:03.630Z,10.86
2023-05-11T20:47:06.826Z,10.94
2023-05-11T20:51:10.894Z,10.89
2023-05-11T20:55:13.820Z,10.78
2023-05-11T21:03:22.248Z,10.54
2023-05-11T21:07:28.142Z,10.66
2023-05-11T21:11:30.848Z,10.65
2023-05-11T21:15:33.623Z,10.50
2023-05-11T21:19:36.343Z,10.59
2023-05-11T21:23:40.667Z,10.49
2023-05-11T21:27:43.357Z,10.38
2023-05-11T21:31:45.984Z,10.67
2023-05-11T21:35:48.755Z,10.59
2023-05-11T21:39:53.234Z,10.58
2023-05-11T21:43:55.805Z,10.69
2023-05-11T21:47:59.359Z,10.64
2023-05-11T21:52:02.111Z,10.60
2023-05-11T21:56:06.372Z,10.49
2023-05-11T22:00:10.993Z,10.77
2023-05-11T22:04:13.782Z,10.74
2023-05-11T22:08:16.528Z,10.47
2023-05-11T22:12:20.521Z,10.68
2023-05-11T22:16:23.183Z,10.87
2023-05-11T22:20:25.811Z,10.63
2023-05-11T22:24:28.435Z,10.58
2023-05-11T22:28:32.908Z,10.31
2023-05-11T22:32:36.146Z,10.26
2023-05-11T22:36:38.879Z,10.41
2023-05-11T22:40:41.531Z,10.35
2023-05-11T22:44:45.626Z,10.43
2023-05-11T22:48:48.271Z,10.34
2023-05-11T22:52:50.960Z,10.29
2023-05-11T22:56:53.709Z,10.35
2023-05-11T23:00:58.413Z,10.29
2023-05-11T23:05:01.061Z,10.38
2023-05-11T23:09:04.919Z,10.49
2023-05-11T23:13:09.008Z,10.60
2023-05-11T23:17:13.340Z,10.56
2023-05-11T23:21:16.289Z,10.58
2023-05-11T23:25:20.408Z,10.45
2023-05-11T23:29:23.166Z,10.27
2023-05-11T23:33:27.272Z,10.47
2023-05-11T23:37:30.164Z,10.50
2023-05-11T23:41:33.227Z,10.43
2023-05-11T23:45:36.022Z,10.60
2023-05-11T23:49:40.670Z,10.48
2023-05-11T23:53:43.603Z,10.33
2023-05-11T23:57:46.574Z,10.58
